Time;durP1;ratioP1;P1;durP2;ratioP2;P2;SDS_P1;SDS_P2;PMS_P1;PMS_P2;Temp;Humidity;BMP_temperature;BMP_pressure;BME280_temperature;BME280_humidity;BME280_pressure;Samples;Min_cycle;Max_cycle;Signal;HPM_P1;HPM_P2
2023/03/22 00:00:40;;;;;;;2.23;1.47;;;15.20;99.90;;;;;;6219508;23;20172;-96
2023/03/22 00:03:13;;;;;;;2.50;1.60;;;15.30;99.90;;;;;;6191380;23;20255;-93
2023/03/22 00:05:44;;;;;;;2.83;1.80;;;15.40;99.90;;;;;;6215349;23;20204;-95
2023/03/22 00:08:18;;;;;;;2.17;1.60;;;15.40;99.90;;;;;;6216021;23;20176;-93
2023/03/22 00:10:50;;;;;;;2.90;1.63;;;15.40;99.90;;;;;;6217474;23;20301;-92
2023/03/22 00:13:21;;;;;;;5.97;1.67;;;15.40;99.90;;;;;;6216201;23;20231;-94
2023/03/22 00:15:52;;;;;;;2.27;2.07;;;15.40;99.90;;;;;;6218216;23;20618;-93
2023/03/22 00:18:24;;;;;;;2.93;1.70;;;15.40;99.90;;;;;;6214465;23;20501;-94
2023/03/22 00:20:57;;;;;;;2.97;1.60;;;15.30;99.90;;;;;;6216136;23;20677;-93
2023/03/22 00:23:30;;;;;;;4.60;2.13;;;15.10;99.90;;;;;;6215664;23;20168;-92
2023/03/22 00:26:02;;;;;;;2.10;1.90;;;14.90;99.90;;;;;;6215995;23;20251;-91
2023/03/22 00:28:34;;;;;;;3.73;1.90;;;14.60;99.90;;;;;;6215290;23;20168;-92
2023/03/22 00:31:06;;;;;;;2.83;1.80;;;14.50;99.90;;;;;;6217706;23;20545;-93
2023/03/22 00:33:38;;;;;;;2.33;1.87;;;14.30;99.90;;;;;;6215582;23;20247;-91
2023/03/22 00:36:11;;;;;;;1.67;1.57;;;14.00;99.90;;;;;;6215960;23;20246;-93
2023/03/22 00:38:45;;;;;;;2.83;1.80;;;13.90;99.90;;;;;;6217333;23;20165;-94
2023/03/22 00:41:17;;;;;;;2.47;1.83;;;13.80;99.90;;;;;;6217933;23;20565;-93
2023/03/22 00:43:50;;;;;;;2.37;1.80;;;13.70;99.90;;;;;;6218443;23;20173;-93
2023/03/22 00:46:22;;;;;;;3.43;2.00;;;13.70;99.90;;;;;;6219233;23;20654;-94
2023/03/22 00:48:54;;;;;;;3.83;2.10;;;13.60;99.90;;;;;;6218339;23;20180;-92
2023/03/22 00:51:26;;;;;;;3.63;1.63;;;13.60;99.90;;;;;;6218045;23;20254;-95
2023/03/22 00:53:59;;;;;;;1.87;1.70;;;13.50;99.90;;;;;;6218867;23;20254;-95
2023/03/22 00:56:32;;;;;;;2.83;2.03;;;13.40;99.90;;;;;;6217683;23;20168;-94
2023/03/22 00:59:04;;;;;;;4.13;2.17;;;13.40;99.90;;;;;;6191965;23;20183;-93
2023/03/22 01:01:36;;;;;;;3.13;2.03;;;13.10;99.90;;;;;;6218283;23;20685;-93
2023/03/22 01:04:08;;;;;;;2.33;1.97;;;13.10;99.90;;;;;;6220493;23;20268;-95
2023/03/22 01:06:40;;;;;;;3.20;2.10;;;13.00;99.90;;;;;;6218667;23;20192;-95
2023/03/22 01:09:13;;;;;;;4.07;2.17;;;12.90;99.90;;;;;;6217687;23;20227;-95
2023/03/22 01:11:44;;;;;;;2.70;1.83;;;12.90;99.90;;;;;;6221021;23;20352;-93
2023/03/22 01:14:16;;;;;;;4.10;2.30;;;12.80;99.90;;;;;;6222697;23;20623;-93
2023/03/22 01:16:48;;;;;;;3.97;1.90;;;12.70;99.90;;;;;;6220468;23;20176;-94
2023/03/22 01:19:20;;;;;;;3.90;2.00;;;12.70;99.90;;;;;;6219379;23;20165;-95
2023/03/22 01:21:52;;;;;;;2.30;1.90;;;12.70;99.90;;;;;;6218328;23;20165;-94
2023/03/22 01:24:25;;;;;;;2.50;2.17;;;12.60;99.90;;;;;;6219652;23;20176;-94
2023/03/22 01:26:58;;;;;;;3.00;2.17;;;12.50;99.90;;;;;;6219738;23;20196;-93
2023/03/22 01:29:30;;;;;;;2.70;2.10;;;12.50;99.90;;;;;;6228090;23;20168;-93
2023/03/22 01:32:02;;;;;;;3.67;2.20;;;12.50;99.90;;;;;;6242160;23;20179;-94
2023/03/22 01:34:34;;;;;;;3.30;2.20;;;12.50;99.90;;;;;;6241040;23;20172;-94
2023/03/22 01:37:05;;;;;;;2.97;1.97;;;12.50;99.90;;;;;;6217854;23;20172;-94
2023/03/22 01:39:39;;;;;;;3.63;2.30;;;12.40;99.90;;;;;;6191602;23;20223;-94
2023/03/22 01:42:14;;;;;;;2.73;2.30;;;12.40;99.90;;;;;;6217707;23;20164;-94
2023/03/22 01:45:39;;;;;;;4.40;2.63;;;12.20;99.90;;;;;;6217593;23;20180;-94
2023/03/22 01:48:19;;;;;;;5.23;2.90;;;12.00;99.90;;;;;;6217011;23;20180;-94
2023/03/22 01:51:02;;;;;;;5.27;2.97;;;11.90;99.90;;;;;;6216893;23;20247;-95
2023/03/22 01:53:37;;;;;;;5.23;3.20;;;11.90;99.90;;;;;;6217077;23;20168;-96
2023/03/22 01:56:12;;;;;;;3.63;3.03;;;11.80;99.90;;;;;;6217622;23;20168;-95
2023/03/22 01:58:44;;;;;;;5.30;3.77;;;11.60;99.90;;;;;;6217496;23;20201;-95
2023/03/22 02:01:17;;;;;;;4.27;3.70;;;11.50;99.90;;;;;;6217110;23;20176;-96
2023/03/22 02:03:52;;;;;;;4.93;3.63;;;11.40;99.90;;;;;;6219724;23;20187;-95
2023/03/22 02:06:24;;;;;;;4.63;3.70;;;11.30;99.90;;;;;;6193397;23;20254;-96
2023/03/22 02:08:57;;;;;;;4.53;3.30;;;11.20;99.90;;;;;;6214891;23;20172;-95
2023/03/22 02:11:34;;;;;;;4.23;3.80;;;11.10;99.90;;;;;;6192763;23;20173;-96
2023/03/22 02:14:28;;;;;;;5.63;3.93;;;11.00;99.90;;;;;;6223783;23;20235;-95
2023/03/22 02:17:18;;;;;;;5.57;3.97;;;11.00;99.90;;;;;;6225071;23;20173;-95
2023/03/22 02:20:37;;;;;;;8.17;4.07;;;10.90;99.90;;;;;;6223064;23;20180;-96
2023/03/22 02:23:45;;;;;;;6.37;4.07;;;10.90;99.90;;;;;;6222170;23;20169;-95
2023/03/22 02:26:48;;;;;;;6.90;4.23;;;10.70;99.90;;;;;;6223474;23;20200;-94
2023/03/22 02:29:32;;;;;;;7.20;4.43;;;10.60;99.90;;;;;;6191463;23;20211;-94
2023/03/22 02:32:37;;;;;;;7.27;4.33;;;10.50;99.90;;;;;;6218572;23;20203;-95
2023/03/22 02:35:35;;;;;;;7.93;4.90;;;10.50;99.90;;;;;;6219828;23;20176;-95
2023/03/22 02:39:00;;;;;;;7.37;4.60;;;10.40;99.90;;;;;;6218401;23;20169;-95
2023/03/22 02:41:49;;;;;;;7.03;4.70;;;10.30;99.90;;;;;;6219153;23;20191;-95
2023/03/22 02:44:28;;;;;;;6.10;4.30;;;10.20;99.90;;;;;;6218262;23;20196;-96
2023/03/22 02:47:05;;;;;;;7.20;4.87;;;10.20;99.90;;;;;;6219336;23;20214;-95
2023/03/22 02:49:41;;;;;;;6.43;4.73;;;10.10;99.90;;;;;;6220733;23;20188;-94
2023/03/22 02:52:20;;;;;;;7.77;5.00;;;10.10;99.90;;;;;;6218214;23;20176;-95
2023/03/22 02:54:59;;;;;;;7.07;5.07;;;10.00;99.90;;;;;;6218626;23;20169;-96
2023/03/22 02:57:38;;;;;;;7.43;4.97;;;9.90;99.90;;;;;;6217374;23;20230;-95
2023/03/22 03:00:11;;;;;;;7.13;5.27;;;9.90;99.90;;;;;;6220555;23;20183;-96
2023/03/22 03:02:47;;;;;;;8.73;5.50;;;9.80;99.90;;;;;;6222775;23;20231;-96
2023/03/22 03:05:19;;;;;;;7.70;5.13;;;9.70;99.90;;;;;;6221418;23;20172;-96
2023/03/22 03:07:56;;;;;;;5.37;4.57;;;9.70;99.90;;;;;;6221103;23;20270;-96
2023/03/22 03:10:28;;;;;;;9.13;5.20;;;9.60;99.90;;;;;;6222198;23;20172;-96
2023/03/22 03:13:02;;;;;;;9.10;5.43;;;9.60;99.90;;;;;;6195435;23;20173;-96
2023/03/22 03:15:33;;;;;;;7.83;5.17;;;9.60;99.90;;;;;;6219762;23;20184;-95
2023/03/22 03:18:21;;;;;;;6.73;5.37;;;9.60;99.90;;;;;;6219301;23;20177;-96
2023/03/22 03:21:03;;;;;;;7.63;5.03;;;9.50;99.90;;;;;;6219958;23;20169;-96
2023/03/22 03:23:45;;;;;;;5.90;4.53;;;9.40;99.90;;;;;;6223985;23;20207;-96
2023/03/22 03:26:24;;;;;;;9.90;5.60;;;9.30;99.90;;;;;;6221044;23;20196;-96
2023/03/22 03:29:01;;;;;;;8.57;5.50;;;9.20;99.90;;;;;;6221025;23;20649;-95
2023/03/22 03:31:39;;;;;;;8.10;5.53;;;9.10;99.90;;;;;;6222099;23;20180;-96
2023/03/22 03:34:21;;;;;;;8.87;5.27;;;9.10;99.90;;;;;;6195863;23;20183;-93
2023/03/22 03:36:58;;;;;;;7.10;5.03;;;9.10;99.90;;;;;;6236559;23;20176;-94
2023/03/22 03:39:34;;;;;;;7.20;5.90;;;9.00;99.90;;;;;;6214487;23;20164;-94
2023/03/22 03:42:08;;;;;;;7.27;5.17;;;9.00;99.90;;;;;;6185420;23;20170;-95
2023/03/22 03:44:42;;;;;;;8.00;5.77;;;8.90;99.90;;;;;;6228490;23;20207;-94
2023/03/22 03:47:15;;;;;;;7.33;5.47;;;8.90;99.90;;;;;;6219837;23;20196;-94
2023/03/22 03:49:47;;;;;;;7.80;5.57;;;8.80;99.90;;;;;;6219744;23;20564;-95
2023/03/22 03:52:23;;;;;;;8.43;5.03;;;8.70;99.90;;;;;;6217027;23;20187;-95
2023/03/22 03:54:57;;;;;;;9.37;6.37;;;8.70;99.90;;;;;;6220240;23;20176;-96
2023/03/22 03:57:33;;;;;;;8.63;5.70;;;8.70;99.90;;;;;;6222116;23;20188;-95
2023/03/22 04:00:08;;;;;;;12.97;6.80;;;8.70;99.90;;;;;;6195964;23;20178;-95
2023/03/22 04:02:40;;;;;;;8.87;6.53;;;8.70;99.90;;;;;;6219207;23;20186;-95
2023/03/22 04:05:12;;;;;;;10.77;6.43;;;8.60;99.90;;;;;;6217605;23;20791;-94
2023/03/22 04:07:45;;;;;;;10.57;6.20;;;8.70;99.90;;;;;;6217824;23;20192;-95
2023/03/22 04:10:16;;;;;;;8.10;5.90;;;8.60;99.90;;;;;;6219537;23;20186;-96
2023/03/22 04:12:47;;;;;;;7.47;5.57;;;8.60;99.90;;;;;;6219974;23;20470;-96
2023/03/22 04:15:20;;;;;;;8.70;5.50;;;8.60;99.90;;;;;;6220503;23;20187;-96
2023/03/22 04:17:54;;;;;;;9.13;5.47;;;8.50;99.90;;;;;;6218554;23;20247;-96
2023/03/22 04:20:26;;;;;;;8.00;5.57;;;8.40;99.90;;;;;;6218812;23;20556;-95
2023/03/22 04:22:59;;;;;;;7.47;5.50;;;8.30;99.90;;;;;;6218973;23;20172;-95
2023/03/22 04:25:32;;;;;;;8.27;6.03;;;8.20;99.90;;;;;;6219888;23;20510;-95
2023/03/22 04:28:05;;;;;;;7.27;5.77;;;8.20;99.90;;;;;;6218641;23;20271;-96
2023/03/22 04:30:38;;;;;;;9.13;6.10;;;8.10;99.90;;;;;;6220972;23;20580;-95
2023/03/22 04:33:12;;;;;;;8.77;6.20;;;8.10;99.90;;;;;;6221017;23;20183;-96
2023/03/22 04:35:45;;;;;;;8.90;6.20;;;8.00;99.90;;;;;;6193847;23;20171;-95
2023/03/22 04:38:17;;;;;;;9.03;5.83;;;8.00;99.90;;;;;;6223304;23;20222;-95
2023/03/22 04:40:49;;;;;;;10.77;6.00;;;7.90;99.90;;;;;;6218753;23;20256;-94
2023/03/22 04:43:20;;;;;;;8.20;5.80;;;7.90;99.90;;;;;;6218835;23;20178;-94
2023/03/22 04:45:57;;;;;;;10.57;6.63;;;7.90;99.90;;;;;;6219395;23;20218;-95
2023/03/22 04:48:28;;;;;;;7.60;6.23;;;7.80;99.90;;;;;;6218276;23;20292;-94
2023/03/22 04:51:02;;;;;;;6.57;5.17;;;7.80;99.90;;;;;;6218733;23;20188;-94
2023/03/22 04:53:38;;;;;;;10.20;6.50;;;7.80;99.90;;;;;;6227232;23;20176;-93
2023/03/22 04:56:12;;;;;;;7.40;5.43;;;7.80;99.90;;;;;;6218115;23;20184;-93
2023/03/22 04:58:45;;;;;;;7.43;5.57;;;7.80;99.90;;;;;;6217650;23;20186;-93
2023/03/22 05:01:19;;;;;;;9.07;6.13;;;7.70;99.90;;;;;;6222746;23;20634;-94
2023/03/22 05:03:52;;;;;;;9.93;5.93;;;7.70;99.90;;;;;;6224104;23;20545;-95
2023/03/22 05:06:24;;;;;;;8.43;5.57;;;7.60;99.90;;;;;;6227817;23;20208;-93
2023/03/22 05:08:55;;;;;;;8.60;6.03;;;7.60;99.90;;;;;;6227197;23;20193;-94
2023/03/22 05:11:27;;;;;;;7.53;5.50;;;7.60;99.90;;;;;;6231478;23;20195;-96
2023/03/22 05:13:59;;;;;;;8.03;5.83;;;7.50;99.90;;;;;;6233728;23;20211;-95
2023/03/22 05:16:33;;;;;;;8.77;6.17;;;7.50;99.90;;;;;;6238193;23;20195;-96
2023/03/22 05:19:05;;;;;;;9.97;6.40;;;7.40;99.90;;;;;;6239490;23;20156;-96
2023/03/22 05:21:39;;;;;;;9.97;6.57;;;7.40;99.90;;;;;;6237528;23;20179;-95
2023/03/22 05:24:12;;;;;;;9.20;6.77;;;7.40;99.90;;;;;;6222144;23;20164;-95
2023/03/22 05:26:44;;;;;;;11.30;6.60;;;7.30;99.90;;;;;;6196151;23;20188;-95
2023/03/22 05:29:16;;;;;;;9.33;6.73;;;7.30;99.90;;;;;;6219002;23;20196;-96
2023/03/22 05:31:49;;;;;;;11.73;6.97;;;7.30;99.90;;;;;;6220774;23;20642;-96
2023/03/22 05:34:22;;;;;;;10.20;6.83;;;7.30;99.90;;;;;;6220400;23;20817;-96
2023/03/22 05:36:53;;;;;;;7.27;6.03;;;7.30;99.90;;;;;;6222704;23;20173;-95
2023/03/22 05:39:26;;;;;;;11.80;6.67;;;7.30;99.90;;;;;;6220998;23;20248;-96
2023/03/22 05:41:57;;;;;;;7.87;6.27;;;7.20;99.90;;;;;;6222043;23;20510;-95
2023/03/22 05:44:30;;;;;;;9.00;5.93;;;7.20;99.90;;;;;;6243460;23;20182;-95
2023/03/22 05:47:05;;;;;;;8.27;6.13;;;7.20;99.90;;;;;;6242841;23;20180;-94
2023/03/22 05:49:37;;;;;;;9.73;6.80;;;7.10;99.90;;;;;;6204336;23;20218;-94
2023/03/22 05:52:08;;;;;;;7.90;5.93;;;7.10;99.90;;;;;;6219175;23;20181;-94
2023/03/22 05:54:40;;;;;;;8.47;6.33;;;7.00;99.90;;;;;;6218369;23;20611;-94
2023/03/22 05:57:11;;;;;;;10.30;6.50;;;7.00;99.90;;;;;;6218837;23;20180;-94
2023/03/22 05:59:43;;;;;;;9.60;6.87;;;6.90;99.90;;;;;;6217960;23;20738;-95
2023/03/22 06:02:16;;;;;;;11.13;6.20;;;6.90;99.90;;;;;;6219059;23;20235;-95
2023/03/22 06:04:48;;;;;;;8.07;6.20;;;6.90;99.90;;;;;;6217990;23;20247;-95
2023/03/22 06:07:20;;;;;;;8.53;6.90;;;6.90;99.90;;;;;;6217756;23;20164;-94
2023/03/22 06:09:51;;;;;;;9.97;7.13;;;6.90;99.90;;;;;;6217452;23;20200;-94
2023/03/22 06:12:24;;;;;;;10.20;7.43;;;6.80;99.90;;;;;;6216921;23;20187;-94
2023/03/22 06:14:59;;;;;;;11.00;7.50;;;6.70;99.90;;;;;;6218424;23;20203;-95
2023/03/22 06:17:33;;;;;;;9.73;6.87;;;6.60;99.90;;;;;;6216405;23;20171;-96
2023/03/22 06:20:09;;;;;;;11.97;7.13;;;6.60;99.90;;;;;;6217672;23;20180;-95
2023/03/22 06:22:41;;;;;;;9.17;6.73;;;6.60;99.90;;;;;;6217735;23;20179;-94
2023/03/22 06:25:13;;;;;;;9.70;6.93;;;6.60;99.90;;;;;;6217646;23;20183;-96
2023/03/22 06:27:45;;;;;;;10.60;7.20;;;6.50;99.90;;;;;;6217042;23;20285;-96
2023/03/22 06:30:17;;;;;;;10.60;7.83;;;6.50;99.90;;;;;;6191517;23;20173;-96
2023/03/22 06:32:51;;;;;;;13.97;7.97;;;6.40;99.90;;;;;;6217046;23;20203;-94
2023/03/22 06:35:23;;;;;;;11.10;6.77;;;6.30;99.90;;;;;;6216539;23;20227;-96
2023/03/22 06:37:55;;;;;;;10.00;7.17;;;6.30;99.90;;;;;;6191070;23;20510;-95
2023/03/22 06:40:28;;;;;;;8.97;7.20;;;6.30;99.90;;;;;;6217473;23;20203;-95
2023/03/22 06:42:59;;;;;;;10.90;7.30;;;6.40;99.90;;;;;;6216972;23;20259;-95
2023/03/22 06:45:35;;;;;;;9.70;6.40;;;6.30;99.90;;;;;;6216286;23;20168;-95
2023/03/22 06:48:10;;;;;;;11.47;7.10;;;6.30;99.90;;;;;;6217739;23;20214;-95
2023/03/22 06:50:43;;;;;;;9.53;6.63;;;6.30;99.90;;;;;;6216317;23;20223;-95
2023/03/22 06:53:15;;;;;;;10.00;7.37;;;6.30;99.90;;;;;;6219433;23;20191;-94
2023/03/22 06:55:47;;;;;;;9.67;6.77;;;6.30;99.90;;;;;;6221304;23;20268;-94
2023/03/22 06:58:18;;;;;;;10.80;7.10;;;6.30;99.90;;;;;;6219078;23;20180;-94
2023/03/22 07:00:53;;;;;;;9.47;7.17;;;6.20;99.90;;;;;;6220268;23;20203;-94
2023/03/22 07:03:26;;;;;;;9.37;6.77;;;6.20;99.90;;;;;;6221341;23;20168;-94
2023/03/22 07:06:02;;;;;;;10.90;6.50;;;6.20;99.90;;;;;;6219475;23;20180;-94
2023/03/22 07:08:35;;;;;;;9.23;6.57;;;6.20;99.90;;;;;;6219870;23;20203;-94
2023/03/22 07:11:08;;;;;;;9.47;6.40;;;6.10;99.90;;;;;;6219696;23;20219;-95
2023/03/22 07:13:40;;;;;;;12.17;7.13;;;6.10;99.90;;;;;;6218917;23;20176;-95
2023/03/22 07:16:11;;;;;;;10.33;6.80;;;6.10;99.90;;;;;;6217193;23;20607;-95
2023/03/22 07:18:46;;;;;;;10.33;6.40;;;6.10;99.90;;;;;;6217867;23;20183;-94
2023/03/22 07:21:18;;;;;;;8.70;6.90;;;6.00;99.90;;;;;;6217905;23;20540;-95
2023/03/22 07:23:50;;;;;;;8.17;6.53;;;6.00;99.90;;;;;;6218258;23;20172;-95
2023/03/22 07:26:21;;;;;;;11.03;7.50;;;5.90;99.90;;;;;;6219474;23;20169;-95
2023/03/22 07:28:52;;;;;;;9.10;6.67;;;5.90;99.90;;;;;;6218448;23;20258;-95
2023/03/22 07:31:23;;;;;;;10.03;6.70;;;5.90;99.90;;;;;;6218854;23;20184;-95
2023/03/22 07:33:58;;;;;;;10.97;7.20;;;5.90;99.90;;;;;;6219130;23;20538;-94
2023/03/22 07:36:29;;;;;;;10.77;6.60;;;5.90;99.90;;;;;;6193330;23;20161;-94
2023/03/22 07:39:01;;;;;;;10.30;7.13;;;5.80;99.90;;;;;;6218820;23;20172;-96
2023/03/22 07:41:33;;;;;;;10.07;7.53;;;5.80;99.90;;;;;;6219383;23;20172;-96
2023/03/22 07:44:07;;;;;;;10.27;7.67;;;5.80;99.90;;;;;;6220016;23;20192;-95
2023/03/22 07:46:47;;;;;;;11.03;7.27;;;5.80;99.90;;;;;;6239885;23;20210;-95
2023/03/22 07:49:21;;;;;;;13.17;8.40;;;5.80;99.90;;;;;;6239425;23;20591;-95
2023/03/22 07:51:53;;;;;;;12.73;9.13;;;5.70;99.90;;;;;;6239159;23;20187;-96
2023/03/22 07:54:24;;;;;;;12.47;8.83;;;5.70;99.90;;;;;;6226693;23;20168;-94
2023/03/22 07:57:03;;;;;;;10.50;7.93;;;5.70;99.90;;;;;;6219124;23;20184;-94
2023/03/22 07:59:36;;;;;;;11.30;7.27;;;5.70;99.90;;;;;;6219134;23;20534;-94
2023/03/22 08:02:11;;;;;;;14.83;8.70;;;5.60;99.90;;;;;;6217602;23;20195;-95
2023/03/22 08:04:45;;;;;;;12.57;8.67;;;5.60;99.90;;;;;;6193140;23;20180;-94
2023/03/22 08:07:20;;;;;;;14.40;8.47;;;5.50;99.90;;;;;;6218622;23;20180;-94
2023/03/22 08:09:52;;;;;;;13.67;9.50;;;5.50;99.90;;;;;;6218107;23;20192;-93
2023/03/22 08:12:24;;;;;;;14.73;9.37;;;5.50;99.90;;;;;;6216341;23;20646;-95
2023/03/22 08:14:55;;;;;;;13.30;8.93;;;5.50;99.90;;;;;;6216838;23;20183;-94
2023/03/22 08:17:28;;;;;;;13.57;9.33;;;5.50;99.90;;;;;;6216731;23;20184;-95
2023/03/22 08:20:04;;;;;;;11.53;8.20;;;5.50;99.90;;;;;;6216953;23;20173;-94
2023/03/22 08:22:36;;;;;;;12.90;8.57;;;5.50;99.90;;;;;;6216828;23;20642;-93
2023/03/22 08:25:10;;;;;;;12.63;8.63;;;5.40;99.90;;;;;;6217105;23;20195;-96
2023/03/22 08:27:41;;;;;;;12.87;9.30;;;5.40;99.90;;;;;;6217597;23;20188;-95
2023/03/22 08:30:15;;;;;;;12.87;9.30;;;5.40;99.90;;;;;;6223388;23;20200;-94
2023/03/22 08:32:46;;;;;;;11.83;9.10;;;5.30;99.90;;;;;;6194654;23;20188;-95
2023/03/22 08:35:21;;;;;;;10.07;8.30;;;5.30;99.90;;;;;;6194935;23;20176;-95
2023/03/22 08:37:56;;;;;;;12.30;9.17;;;5.30;99.90;;;;;;6196567;23;20271;-95
2023/03/22 08:40:28;;;;;;;11.47;8.30;;;5.30;99.90;;;;;;6223898;23;20517;-93
2023/03/22 08:43:01;;;;;;;11.47;8.07;;;5.30;99.90;;;;;;6197176;23;20164;-94
2023/03/22 08:45:34;;;;;;;13.63;7.97;;;5.30;99.90;;;;;;6218673;23;20176;-94
2023/03/22 08:48:06;;;;;;;11.20;8.13;;;5.30;99.90;;;;;;6221027;23;20168;-94
2023/03/22 08:50:39;;;;;;;11.40;7.80;;;5.40;99.90;;;;;;6224890;23;20278;-95
2023/03/22 08:53:12;;;;;;;12.33;7.80;;;5.40;99.90;;;;;;6235517;23;20159;-94
2023/03/22 08:55:44;;;;;;;10.37;7.87;;;5.40;99.90;;;;;;6210615;23;20196;-95
2023/03/22 08:58:18;;;;;;;9.07;6.20;;;5.40;99.90;;;;;;6231774;23;20183;-93
2023/03/22 09:00:50;;;;;;;11.57;7.00;;;5.40;99.90;;;;;;6222293;23;20177;-94
2023/03/22 09:03:22;;;;;;;8.93;6.87;;;5.40;99.90;;;;;;6221277;23;20477;-95
2023/03/22 09:05:56;;;;;;;10.57;6.90;;;5.30;99.90;;;;;;6194651;23;20252;-94
2023/03/22 09:08:28;;;;;;;9.07;7.60;;;5.30;99.90;;;;;;6219460;23;20246;-94
2023/03/22 09:10:59;;;;;;;11.23;7.43;;;5.20;99.90;;;;;;6193467;23;20658;-94
2023/03/22 09:13:31;;;;;;;10.03;7.03;;;5.20;99.90;;;;;;6219888;23;20176;-93
2023/03/22 09:16:03;;;;;;;9.40;7.20;;;5.10;99.90;;;;;;6219045;23;20168;-93
2023/03/22 09:18:35;;;;;;;12.40;8.10;;;5.10;99.90;;;;;;6216686;23;20199;-94
2023/03/22 09:21:10;;;;;;;9.53;6.97;;;5.10;99.90;;;;;;6218885;23;20239;-94
2023/03/22 09:23:42;;;;;;;10.40;6.93;;;5.10;99.90;;;;;;6217922;23;20614;-93
2023/03/22 09:26:13;;;;;;;12.50;7.23;;;5.00;99.90;;;;;;6218897;23;20226;-94
2023/03/22 09:28:46;;;;;;;9.93;7.33;;;5.00;99.90;;;;;;6217557;23;20165;-94
2023/03/22 09:31:17;;;;;;;10.50;7.37;;;4.90;99.90;;;;;;6219375;23;20196;-95
2023/03/22 09:33:50;;;;;;;10.83;7.13;;;4.90;99.90;;;;;;6219345;23;20177;-94
2023/03/22 09:36:23;;;;;;;14.00;7.50;;;4.90;99.90;;;;;;6220348;23;20172;-95
2023/03/22 09:38:55;;;;;;;9.57;7.50;;;4.90;99.90;;;;;;6219025;23;20213;-94
2023/03/22 09:41:35;;;;;;;10.60;7.53;;;4.90;99.90;;;;;;6219498;23;20177;-95
2023/03/22 09:44:12;;;;;;;13.33;8.43;;;4.90;99.90;;;;;;6220418;23;20263;-95
2023/03/22 09:46:47;;;;;;;12.23;8.13;;;4.90;99.90;;;;;;6220233;23;20238;-96
2023/03/22 09:49:21;;;;;;;15.10;8.03;;;4.80;99.90;;;;;;6218423;23;20303;-96
2023/03/22 09:51:56;;;;;;;11.97;8.23;;;4.80;99.90;;;;;;6220748;23;20476;-94
2023/03/22 09:54:34;;;;;;;11.83;8.97;;;4.70;99.90;;;;;;6242543;23;20168;-95
2023/03/22 09:57:12;;;;;;;13.00;8.57;;;4.70;99.90;;;;;;6217384;23;20160;-96
2023/03/22 09:59:51;;;;;;;12.10;8.20;;;4.70;99.90;;;;;;6224933;23;20226;-95
2023/03/22 10:02:44;;;;;;;13.87;8.50;;;4.70;99.90;;;;;;6219556;23;20258;-94
2023/03/22 10:05:24;;;;;;;17.47;9.33;;;4.70;99.90;;;;;;6218273;23;20168;-94
2023/03/22 10:08:28;;;;;;;19.20;9.70;;;4.70;99.90;;;;;;6216995;23;20183;-94
2023/03/22 10:11:03;;;;;;;15.33;8.80;;;4.60;99.90;;;;;;6211042;23;20215;-95
2023/03/22 10:13:41;;;;;;;14.00;9.10;;;4.60;99.90;;;;;;6217420;23;20235;-94
2023/03/22 10:16:17;;;;;;;13.97;9.23;;;4.70;99.90;;;;;;6217868;23;20238;-95
2023/03/22 10:18:53;;;;;;;15.13;10.07;;;4.70;99.90;;;;;;6216251;23;20169;-94
2023/03/22 10:21:27;;;;;;;14.73;9.97;;;4.70;99.90;;;;;;6190762;23;20176;-94
2023/03/22 10:24:02;;;;;;;13.53;9.13;;;4.70;99.90;;;;;;6216871;23;20219;-94
2023/03/22 10:26:40;;;;;;;15.07;9.53;;;4.80;99.90;;;;;;6193595;23;20226;-93
2023/03/22 10:29:16;;;;;;;16.07;10.07;;;4.90;99.90;;;;;;6216383;23;20172;-94
2023/03/22 10:31:49;;;;;;;18.23;11.37;;;5.00;99.90;;;;;;6217229;23;20204;-93
2023/03/22 10:34:26;;;;;;;20.47;12.83;;;5.10;99.90;;;;;;6216614;23;20196;-95
2023/03/22 10:37:00;;;;;;;21.63;12.57;;;5.10;99.90;;;;;;6218294;23;20700;-94
2023/03/22 10:39:34;;;;;;;65.87;13.70;;;5.20;99.90;;;;;;6217111;23;20184;-95
2023/03/22 10:42:16;;;;;;;45.67;13.37;;;5.30;99.90;;;;;;6217662;23;20175;-94
2023/03/22 10:44:52;;;;;;;17.73;11.10;;;5.30;99.90;;;;;;6217983;23;20604;-94
2023/03/22 10:47:31;;;;;;;26.77;12.07;;;5.40;99.90;;;;;;6217254;23;20172;-94
2023/03/22 10:50:08;;;;;;;38.50;14.20;;;5.30;99.90;;;;;;6216686;23;20247;-96
2023/03/22 10:52:44;;;;;;;22.67;13.20;;;5.10;99.90;;;;;;6220691;23;20180;-95
2023/03/22 10:55:17;;;;;;;18.77;11.97;;;5.00;99.90;;;;;;6221641;23;20177;-96
2023/03/22 10:58:00;;;;;;;20.90;11.93;;;5.10;99.90;;;;;;6219368;23;20177;-95
2023/03/22 11:00:31;;;;;;;22.87;11.40;;;5.20;99.90;;;;;;6221186;23;20168;-94
2023/03/22 11:03:08;;;;;;;23.17;11.20;;;5.30;99.90;;;;;;6220819;23;20689;-96
2023/03/22 11:05:39;;;;;;;30.07;12.07;;;5.40;99.90;;;;;;6219614;23;20172;-95
2023/03/22 11:08:15;;;;;;;21.87;11.43;;;5.50;99.90;;;;;;6216350;23;20176;-95
2023/03/22 11:10:53;;;;;;;21.70;12.03;;;5.50;99.90;;;;;;6217361;23;20254;-96
2023/03/22 11:13:28;;;;;;;20.20;11.70;;;5.50;99.90;;;;;;6217484;23;20243;-93
2023/03/22 11:16:03;;;;;;;26.90;11.27;;;5.50;99.90;;;;;;6217771;23;20180;-93
2023/03/22 11:18:36;;;;;;;19.90;11.10;;;5.60;99.90;;;;;;6216201;23;20230;-94
2023/03/22 11:21:10;;;;;;;19.70;11.20;;;5.60;99.90;;;;;;6216629;23;20180;-95
2023/03/22 11:23:49;;;;;;;25.20;12.80;;;5.60;99.90;;;;;;6216609;23;20181;-94
2023/03/22 11:26:28;;;;;;;23.37;11.07;;;5.60;99.90;;;;;;6216278;23;20618;-96
2023/03/22 11:29:09;;;;;;;27.73;12.23;;;5.70;99.90;;;;;;6215768;23;20179;-94
2023/03/22 11:31:57;;;;;;;32.23;12.43;;;5.70;99.90;;;;;;6216499;23;20192;-94
2023/03/22 11:34:32;;;;;;;27.77;10.43;;;5.70;99.90;;;;;;6216763;23;20174;-94
2023/03/22 11:37:10;;;;;;;19.80;10.33;;;5.80;99.90;;;;;;6217023;23;20206;-94
2023/03/22 11:39:49;;;;;;;22.57;10.47;;;5.80;99.90;;;;;;6217137;23;20168;-95
2023/03/22 11:42:21;;;;;;;24.03;10.33;;;5.80;99.90;;;;;;6217427;23;20207;-95
2023/03/22 11:44:57;;;;;;;24.80;10.20;;;5.80;99.90;;;;;;6217079;23;20183;-95
2023/03/22 11:47:35;;;;;;;18.57;9.60;;;5.80;99.90;;;;;;6192872;23;20194;-95
2023/03/22 11:50:08;;;;;;;33.30;10.87;;;5.70;99.90;;;;;;6218491;23;20239;-95
2023/03/22 11:52:40;;;;;;;56.57;10.40;;;5.70;99.90;;;;;;6218035;23;20257;-95
2023/03/22 11:55:16;;;;;;;38.00;10.43;;;5.80;99.90;;;;;;6223152;23;20176;-95
2023/03/22 11:57:49;;;;;;;43.63;10.20;;;5.80;99.90;;;;;;6240180;23;20164;-95
2023/03/22 12:00:27;;;;;;;29.77;10.97;;;5.70;99.90;;;;;;6239485;23;20244;-95
2023/03/22 12:03:02;;;;;;;52.07;11.70;;;5.70;99.90;;;;;;6224133;23;20172;-94
2023/03/22 12:05:38;;;;;;;25.97;10.57;;;5.70;99.90;;;;;;6221175;23;20176;-94
2023/03/22 12:08:17;;;;;;;42.53;11.30;;;5.70;99.90;;;;;;6217569;23;20176;-96
2023/03/22 12:10:52;;;;;;;24.20;10.00;;;5.70;99.90;;;;;;6221657;23;20164;-94
2023/03/22 12:13:28;;;;;;;20.40;10.60;;;5.60;99.90;;;;;;6219164;23;20238;-96
2023/03/22 12:16:06;;;;;;;19.07;10.33;;;5.50;99.90;;;;;;6217193;23;20180;-93
2023/03/22 12:18:42;;;;;;;17.07;9.20;;;5.40;99.90;;;;;;6216565;23;20206;-94
2023/03/22 12:21:15;;;;;;;17.33;9.27;;;5.30;99.90;;;;;;6215577;23;20187;-94
2023/03/22 12:23:47;;;;;;;15.90;9.73;;;5.20;99.90;;;;;;6216472;23;20190;-92
2023/03/22 12:26:22;;;;;;;16.13;9.63;;;5.20;99.90;;;;;;6216083;23;20176;-93
2023/03/22 12:28:58;;;;;;;16.17;9.53;;;5.10;99.90;;;;;;6216394;23;20168;-95
2023/03/22 12:31:34;;;;;;;14.77;8.57;;;5.00;99.90;;;;;;6216158;23;20687;-95
2023/03/22 12:34:09;;;;;;;14.47;9.10;;;4.90;99.90;;;;;;6216130;23;20178;-94
2023/03/22 12:36:45;;;;;;;13.93;8.40;;;4.80;99.90;;;;;;6217580;23;20587;-94
2023/03/22 12:39:25;;;;;;;17.97;9.70;;;4.70;99.90;;;;;;6217531;23;20180;-93
2023/03/22 12:42:03;;;;;;;16.13;9.13;;;4.70;99.90;;;;;;6193348;23;20615;-94
2023/03/22 12:44:40;;;;;;;15.00;8.97;;;4.60;99.90;;;;;;6193435;23;20626;-96
2023/03/22 12:47:22;;;;;;;16.53;9.00;;;4.60;99.90;;;;;;6218994;23;20171;-94
2023/03/22 12:50:01;;;;;;;19.60;9.20;;;4.50;99.90;;;;;;6218494;23;20263;-94
2023/03/22 12:52:39;;;;;;;96.33;12.10;;;4.60;99.90;;;;;;6218374;23;20203;-93
2023/03/22 12:55:26;;;;;;;73.73;12.07;;;4.70;99.90;;;;;;6218556;23;20235;-95
2023/03/22 12:57:58;;;;;;;185.57;16.43;;;4.70;99.90;;;;;;6193135;23;20226;-95
2023/03/22 13:00:35;;;;;;;77.73;10.73;;;4.70;99.90;;;;;;6219244;23;20168;-94
2023/03/22 13:03:24;;;;;;;80.50;12.27;;;4.80;99.90;;;;;;6218036;23;20180;-94
2023/03/22 13:06:04;;;;;;;203.47;15.30;;;4.80;99.90;;;;;;6217861;23;20251;-96
2023/03/22 13:09:05;;;;;;;60.77;10.87;;;4.80;99.90;;;;;;6216700;23;20172;-94
2023/03/22 13:11:36;;;;;;;54.27;9.17;;;4.80;99.90;;;;;;6168489;23;20230;-95
2023/03/22 13:14:08;;;;;;;35.67;9.20;;;4.80;99.90;;;;;;6218549;23;20205;-95
2023/03/22 13:17:00;;;;;;;19.40;9.07;;;4.70;99.90;;;;;;6217402;23;20494;-95
2023/03/22 13:19:36;;;;;;;13.20;7.50;;;4.70;99.90;;;;;;6216178;23;20642;-93
2023/03/22 13:22:29;;;;;;;13.33;7.63;;;4.70;99.90;;;;;;6216952;23;20630;-94
2023/03/22 13:25:07;;;;;;;13.77;7.43;;;4.60;99.90;;;;;;6210230;23;20242;-93
2023/03/22 13:27:43;;;;;;;10.93;7.13;;;4.50;99.90;;;;;;6216209;23;20239;-92
2023/03/22 13:30:24;;;;;;;9.47;6.50;;;4.40;99.90;;;;;;6216780;23;20175;-94